sensor_id;sensor_type;location;lat;lon;timestamp;P1;durP1;ratioP1;P2;durP2;ratioP2
72856;SDS011;62742;52.136;4.500;2023-07-16T00:00:17;11.30;;;3.10;;
72856;SDS011;62742;52.136;4.500;2023-07-16T00:02:45;13.07;;;3.53;;
72856;SDS011;62742;52.136;4.500;2023-07-16T00:05:12;9.35;;;3.50;;
72856;SDS011;62742;52.136;4.500;2023-07-16T00:07:39;14.32;;;4.10;;
72856;SDS011;62742;52.136;4.500;2023-07-16T00:10:05;13.55;;;3.83;;
72856;SDS011;62742;52.136;4.500;2023-07-16T00:12:32;13.13;;;4.10;;
72856;SDS011;62742;52.136;4.500;2023-07-16T00:14:58;11.70;;;4.18;;
72856;SDS011;62742;52.136;4.500;2023-07-16T00:17:25;11.27;;;4.13;;
72856;SDS011;62742;52.136;4.500;2023-07-16T00:19:51;12.07;;;4.05;;
72856;SDS011;62742;52.136;4.500;2023-07-16T00:22:18;16.02;;;4.80;;
72856;SDS011;62742;52.136;4.500;2023-07-16T00:24:44;15.27;;;4.45;;
72856;SDS011;62742;52.136;4.500;2023-07-16T00:27:11;12.55;;;4.38;;
72856;SDS011;62742;52.136;4.500;2023-07-16T00:29:37;12.63;;;4.32;;
72856;SDS011;62742;52.136;4.500;2023-07-16T00:32:04;12.23;;;4.30;;
72856;SDS011;62742;52.136;4.500;2023-07-16T00:34:30;13.25;;;4.97;;
72856;SDS011;62742;52.136;4.500;2023-07-16T00:36:57;14.45;;;4.70;;
72856;SDS011;62742;52.136;4.500;2023-07-16T00:39:27;15.60;;;4.53;;
72856;SDS011;62742;52.136;4.500;2023-07-16T00:41:55;13.07;;;4.55;;
72856;SDS011;62742;52.136;4.500;2023-07-16T00:44:22;18.50;;;5.10;;
72856;SDS011;62742;52.136;4.500;2023-07-16T00:46:49;14.45;;;4.47;;
72856;SDS011;62742;52.136;4.500;2023-07-16T00:49:17;14.80;;;5.47;;
72856;SDS011;62742;52.136;4.500;2023-07-16T00:51:43;12.82;;;4.75;;
72856;SDS011;62742;52.136;4.500;2023-07-16T00:54:11;16.48;;;5.38;;
72856;SDS011;62742;52.136;4.500;2023-07-16T00:56:38;15.00;;;4.65;;
72856;SDS011;62742;52.136;4.500;2023-07-16T00:59:05;15.10;;;4.55;;
72856;SDS011;62742;52.136;4.500;2023-07-16T01:01:31;15.63;;;5.13;;
72856;SDS011;62742;52.136;4.500;2023-07-16T01:03:58;12.82;;;4.97;;
72856;SDS011;62742;52.136;4.500;2023-07-16T01:08:58;13.40;;;4.93;;
72856;SDS011;62742;52.136;4.500;2023-07-16T01:11:34;12.30;;;4.60;;
72856;SDS011;62742;52.136;4.500;2023-07-16T01:14:02;13.93;;;5.70;;
72856;SDS011;62742;52.136;4.500;2023-07-16T01:16:31;15.73;;;4.97;;
72856;SDS011;62742;52.136;4.500;2023-07-16T01:18:58;14.93;;;5.60;;
72856;SDS011;62742;52.136;4.500;2023-07-16T01:21:25;14.80;;;5.20;;
72856;SDS011;62742;52.136;4.500;2023-07-16T01:30:04;14.55;;;5.47;;
72856;SDS011;62742;52.136;4.500;2023-07-16T01:32:37;14.25;;;5.18;;
72856;SDS011;62742;52.136;4.500;2023-07-16T01:35:05;15.85;;;5.38;;
72856;SDS011;62742;52.136;4.500;2023-07-16T01:37:33;16.17;;;5.53;;
72856;SDS011;62742;52.136;4.500;2023-07-16T01:40:01;14.77;;;5.40;;
72856;SDS011;62742;52.136;4.500;2023-07-16T01:42:28;15.98;;;5.45;;
72856;SDS011;62742;52.136;4.500;2023-07-16T01:44:55;19.45;;;6.07;;
72856;SDS011;62742;52.136;4.500;2023-07-16T01:47:30;15.65;;;5.57;;
72856;SDS011;62742;52.136;4.500;2023-07-16T01:50:10;16.27;;;5.78;;
72856;SDS011;62742;52.136;4.500;2023-07-16T01:52:36;16.15;;;5.82;;
72856;SDS011;62742;52.136;4.500;2023-07-16T01:55:03;14.23;;;5.65;;
72856;SDS011;62742;52.136;4.500;2023-07-16T01:57:30;16.48;;;6.18;;
72856;SDS011;62742;52.136;4.500;2023-07-16T01:59:56;17.52;;;6.63;;
72856;SDS011;62742;52.136;4.500;2023-07-16T02:02:23;16.45;;;6.53;;
72856;SDS011;62742;52.136;4.500;2023-07-16T02:04:49;15.18;;;6.30;;
72856;SDS011;62742;52.136;4.500;2023-07-16T02:07:15;14.23;;;5.93;;
72856;SDS011;62742;52.136;4.500;2023-07-16T02:09:42;18.95;;;5.95;;
72856;SDS011;62742;52.136;4.500;2023-07-16T02:12:08;16.98;;;5.75;;
72856;SDS011;62742;52.136;4.500;2023-07-16T02:14:34;14.82;;;6.30;;
72856;SDS011;62742;52.136;4.500;2023-07-16T02:17:01;15.93;;;6.25;;
72856;SDS011;62742;52.136;4.500;2023-07-16T02:19:29;16.13;;;6.15;;
72856;SDS011;62742;52.136;4.500;2023-07-16T02:21:55;17.08;;;6.47;;
72856;SDS011;62742;52.136;4.500;2023-07-16T02:24:22;15.00;;;6.10;;
72856;SDS011;62742;52.136;4.500;2023-07-16T02:26:48;16.90;;;6.45;;
72856;SDS011;62742;52.136;4.500;2023-07-16T02:29:15;13.90;;;6.28;;
72856;SDS011;62742;52.136;4.500;2023-07-16T02:31:41;18.27;;;6.90;;
72856;SDS011;62742;52.136;4.500;2023-07-16T02:34:11;15.50;;;6.07;;
72856;SDS011;62742;52.136;4.500;2023-07-16T02:36:38;17.15;;;7.30;;
72856;SDS011;62742;52.136;4.500;2023-07-16T02:39:04;18.70;;;6.70;;
72856;SDS011;62742;52.136;4.500;2023-07-16T02:41:31;15.25;;;6.88;;
72856;SDS011;62742;52.136;4.500;2023-07-16T02:44:01;17.27;;;6.50;;
72856;SDS011;62742;52.136;4.500;2023-07-16T02:46:30;15.95;;;7.25;;
72856;SDS011;62742;52.136;4.500;2023-07-16T02:48:57;19.77;;;6.88;;
72856;SDS011;62742;52.136;4.500;2023-07-16T02:51:24;21.05;;;6.93;;
72856;SDS011;62742;52.136;4.500;2023-07-16T02:53:50;20.98;;;7.85;;
72856;SDS011;62742;52.136;4.500;2023-07-16T02:56:17;17.17;;;7.43;;
72856;SDS011;62742;52.136;4.500;2023-07-16T02:58:43;18.83;;;7.45;;
72856;SDS011;62742;52.136;4.500;2023-07-16T03:01:10;20.50;;;6.97;;
72856;SDS011;62742;52.136;4.500;2023-07-16T03:03:37;15.38;;;7.15;;
72856;SDS011;62742;52.136;4.500;2023-07-16T03:06:03;17.25;;;7.53;;
72856;SDS011;62742;52.136;4.500;2023-07-16T03:08:29;14.40;;;6.78;;
72856;SDS011;62742;52.136;4.500;2023-07-16T03:10:57;17.52;;;6.80;;
72856;SDS011;62742;52.136;4.500;2023-07-16T03:13:24;17.25;;;7.03;;
72856;SDS011;62742;52.136;4.500;2023-07-16T03:15:51;18.42;;;6.13;;
72856;SDS011;62742;52.136;4.500;2023-07-16T03:18:20;16.75;;;6.88;;
72856;SDS011;62742;52.136;4.500;2023-07-16T03:20:46;12.02;;;5.55;;
72856;SDS011;62742;52.136;4.500;2023-07-16T03:23:13;16.67;;;5.90;;
72856;SDS011;62742;52.136;4.500;2023-07-16T03:25:39;17.55;;;6.20;;
72856;SDS011;62742;52.136;4.500;2023-07-16T03:28:06;12.57;;;5.07;;
72856;SDS011;62742;52.136;4.500;2023-07-16T03:30:32;12.45;;;4.57;;
72856;SDS011;62742;52.136;4.500;2023-07-16T03:32:59;12.40;;;5.00;;
72856;SDS011;62742;52.136;4.500;2023-07-16T03:35:25;15.30;;;5.63;;
72856;SDS011;62742;52.136;4.500;2023-07-16T03:37:52;16.40;;;5.47;;
72856;SDS011;62742;52.136;4.500;2023-07-16T03:40:24;15.35;;;5.30;;
72856;SDS011;62742;52.136;4.500;2023-07-16T03:42:52;13.65;;;5.80;;
72856;SDS011;62742;52.136;4.500;2023-07-16T03:45:19;16.80;;;5.70;;
72856;SDS011;62742;52.136;4.500;2023-07-16T03:47:46;17.52;;;5.93;;
72856;SDS011;62742;52.136;4.500;2023-07-16T03:50:13;15.65;;;5.40;;
72856;SDS011;62742;52.136;4.500;2023-07-16T03:52:39;16.85;;;6.28;;
72856;SDS011;62742;52.136;4.500;2023-07-16T03:55:06;16.67;;;5.60;;
72856;SDS011;62742;52.136;4.500;2023-07-16T03:57:33;15.82;;;5.97;;
72856;SDS011;62742;52.136;4.500;2023-07-16T03:59:59;17.50;;;6.30;;
72856;SDS011;62742;52.136;4.500;2023-07-16T04:02:25;15.20;;;5.97;;
72856;SDS011;62742;52.136;4.500;2023-07-16T04:04:52;19.05;;;6.72;;
72856;SDS011;62742;52.136;4.500;2023-07-16T04:07:18;19.48;;;6.82;;
72856;SDS011;62742;52.136;4.500;2023-07-16T04:09:45;17.10;;;5.68;;
72856;SDS011;62742;52.136;4.500;2023-07-16T04:12:11;21.67;;;7.25;;
72856;SDS011;62742;52.136;4.500;2023-07-16T04:14:38;14.02;;;5.85;;
72856;SDS011;62742;52.136;4.500;2023-07-16T04:17:04;18.02;;;6.70;;
72856;SDS011;62742;52.136;4.500;2023-07-16T04:19:31;16.00;;;6.78;;
72856;SDS011;62742;52.136;4.500;2023-07-16T04:21:58;17.13;;;6.57;;
72856;SDS011;62742;52.136;4.500;2023-07-16T04:24:24;17.75;;;6.57;;
72856;SDS011;62742;52.136;4.500;2023-07-16T04:26:53;16.23;;;6.38;;
72856;SDS011;62742;52.136;4.500;2023-07-16T04:29:20;19.05;;;6.85;;
72856;SDS011;62742;52.136;4.500;2023-07-16T04:31:48;17.35;;;6.90;;
72856;SDS011;62742;52.136;4.500;2023-07-16T04:34:14;15.98;;;6.20;;
72856;SDS011;62742;52.136;4.500;2023-07-16T04:36:41;17.08;;;6.78;;
72856;SDS011;62742;52.136;4.500;2023-07-16T04:39:09;15.15;;;6.90;;
72856;SDS011;62742;52.136;4.500;2023-07-16T04:41:36;14.45;;;6.15;;
72856;SDS011;62742;52.136;4.500;2023-07-16T04:44:06;14.60;;;6.80;;
72856;SDS011;62742;52.136;4.500;2023-07-16T04:46:32;19.63;;;7.03;;
72856;SDS011;62742;52.136;4.500;2023-07-16T04:48:59;16.05;;;6.53;;
72856;SDS011;62742;52.136;4.500;2023-07-16T04:51:27;14.88;;;6.50;;
72856;SDS011;62742;52.136;4.500;2023-07-16T04:53:54;16.67;;;6.45;;
72856;SDS011;62742;52.136;4.500;2023-07-16T04:56:20;17.55;;;6.75;;
72856;SDS011;62742;52.136;4.500;2023-07-16T04:58:47;17.27;;;6.18;;
72856;SDS011;62742;52.136;4.500;2023-07-16T05:01:13;11.13;;;5.90;;
72856;SDS011;62742;52.136;4.500;2023-07-16T05:03:40;18.35;;;6.43;;
72856;SDS011;62742;52.136;4.500;2023-07-16T05:06:06;14.10;;;6.30;;
72856;SDS011;62742;52.136;4.500;2023-07-16T05:08:33;14.95;;;5.97;;
72856;SDS011;62742;52.136;4.500;2023-07-16T05:11:00;13.48;;;5.80;;
72856;SDS011;62742;52.136;4.500;2023-07-16T05:13:28;17.83;;;6.03;;
72856;SDS011;62742;52.136;4.500;2023-07-16T05:15:54;15.55;;;6.20;;
72856;SDS011;62742;52.136;4.500;2023-07-16T05:18:21;20.02;;;6.63;;
72856;SDS011;62742;52.136;4.500;2023-07-16T05:20:48;14.75;;;5.90;;
72856;SDS011;62742;52.136;4.500;2023-07-16T05:23:15;14.05;;;5.80;;
72856;SDS011;62742;52.136;4.500;2023-07-16T05:25:45;15.20;;;6.25;;
72856;SDS011;62742;52.136;4.500;2023-07-16T05:28:18;12.00;;;5.50;;
72856;SDS011;62742;52.136;4.500;2023-07-16T05:30:45;12.23;;;6.05;;
72856;SDS011;62742;52.136;4.500;2023-07-16T05:33:11;13.00;;;5.30;;
72856;SDS011;62742;52.136;4.500;2023-07-16T05:35:39;14.45;;;5.55;;
72856;SDS011;62742;52.136;4.500;2023-07-16T05:38:06;11.60;;;5.43;;
72856;SDS011;62742;52.136;4.500;2023-07-16T05:40:33;12.60;;;5.55;;
72856;SDS011;62742;52.136;4.500;2023-07-16T05:42:59;12.98;;;5.40;;
72856;SDS011;62742;52.136;4.500;2023-07-16T05:45:25;12.27;;;5.25;;
72856;SDS011;62742;52.136;4.500;2023-07-16T05:47:52;12.10;;;5.00;;
72856;SDS011;62742;52.136;4.500;2023-07-16T05:50:18;11.05;;;4.95;;
72856;SDS011;62742;52.136;4.500;2023-07-16T05:52:45;16.52;;;5.63;;
72856;SDS011;62742;52.136;4.500;2023-07-16T05:55:14;16.33;;;5.78;;
72856;SDS011;62742;52.136;4.500;2023-07-16T05:57:40;15.52;;;5.82;;
72856;SDS011;62742;52.136;4.500;2023-07-16T06:00:07;13.32;;;5.30;;
72856;SDS011;62742;52.136;4.500;2023-07-16T06:02:34;14.10;;;5.60;;
72856;SDS011;62742;52.136;4.500;2023-07-16T06:05:01;16.38;;;5.50;;
72856;SDS011;62742;52.136;4.500;2023-07-16T06:07:28;14.02;;;5.57;;
72856;SDS011;62742;52.136;4.500;2023-07-16T06:09:54;13.10;;;5.38;;
72856;SDS011;62742;52.136;4.500;2023-07-16T06:12:20;13.13;;;5.55;;
72856;SDS011;62742;52.136;4.500;2023-07-16T06:14:47;15.27;;;5.72;;
72856;SDS011;62742;52.136;4.500;2023-07-16T06:17:13;14.18;;;5.20;;
72856;SDS011;62742;52.136;4.500;2023-07-16T06:19:40;12.93;;;5.32;;
72856;SDS011;62742;52.136;4.500;2023-07-16T06:22:06;12.38;;;5.18;;
72856;SDS011;62742;52.136;4.500;2023-07-16T06:24:34;13.20;;;5.30;;
72856;SDS011;62742;52.136;4.500;2023-07-16T06:27:01;13.15;;;6.05;;
72856;SDS011;62742;52.136;4.500;2023-07-16T06:29:28;17.98;;;5.43;;
72856;SDS011;62742;52.136;4.500;2023-07-16T06:31:55;10.85;;;4.97;;
72856;SDS011;62742;52.136;4.500;2023-07-16T06:34:24;12.52;;;5.50;;
72856;SDS011;62742;52.136;4.500;2023-07-16T06:36:51;13.73;;;5.88;;
72856;SDS011;62742;52.136;4.500;2023-07-16T06:39:17;13.88;;;5.57;;
72856;SDS011;62742;52.136;4.500;2023-07-16T06:41:44;13.70;;;5.95;;
72856;SDS011;62742;52.136;4.500;2023-07-16T06:44:10;11.88;;;5.45;;
72856;SDS011;62742;52.136;4.500;2023-07-16T06:46:37;14.85;;;5.70;;
72856;SDS011;62742;52.136;4.500;2023-07-16T06:49:04;13.05;;;5.00;;
72856;SDS011;62742;52.136;4.500;2023-07-16T06:51:33;12.35;;;5.28;;
72856;SDS011;62742;52.136;4.500;2023-07-16T06:53:59;12.13;;;4.97;;
72856;SDS011;62742;52.136;4.500;2023-07-16T06:56:26;11.32;;;5.07;;
72856;SDS011;62742;52.136;4.500;2023-07-16T06:58:53;12.43;;;5.60;;
72856;SDS011;62742;52.136;4.500;2023-07-16T07:01:19;11.85;;;4.93;;
72856;SDS011;62742;52.136;4.500;2023-07-16T07:03:46;15.57;;;5.38;;
72856;SDS011;62742;52.136;4.500;2023-07-16T07:06:12;15.10;;;5.22;;
72856;SDS011;62742;52.136;4.500;2023-07-16T07:08:39;12.00;;;5.50;;
72856;SDS011;62742;52.136;4.500;2023-07-16T07:11:05;15.88;;;5.78;;
72856;SDS011;62742;52.136;4.500;2023-07-16T07:13:32;13.75;;;5.07;;
72856;SDS011;62742;52.136;4.500;2023-07-16T07:15:58;13.80;;;5.60;;
72856;SDS011;62742;52.136;4.500;2023-07-16T07:18:25;12.57;;;5.47;;
72856;SDS011;62742;52.136;4.500;2023-07-16T07:20:51;13.30;;;5.45;;
72856;SDS011;62742;52.136;4.500;2023-07-16T07:23:18;13.77;;;5.57;;
72856;SDS011;62742;52.136;4.500;2023-07-16T07:25:48;12.18;;;5.63;;
72856;SDS011;62742;52.136;4.500;2023-07-16T07:28:19;13.15;;;6.20;;
72856;SDS011;62742;52.136;4.500;2023-07-16T07:30:46;16.33;;;6.05;;
72856;SDS011;62742;52.136;4.500;2023-07-16T07:33:12;16.00;;;6.35;;
72856;SDS011;62742;52.136;4.500;2023-07-16T07:35:39;13.93;;;5.95;;
72856;SDS011;62742;52.136;4.500;2023-07-16T07:38:05;13.98;;;5.82;;
72856;SDS011;62742;52.136;4.500;2023-07-16T07:40:32;14.68;;;6.28;;
72856;SDS011;62742;52.136;4.500;2023-07-16T07:42:58;12.98;;;6.20;;
72856;SDS011;62742;52.136;4.500;2023-07-16T07:45:24;11.32;;;5.57;;
72856;SDS011;62742;52.136;4.500;2023-07-16T07:47:51;12.50;;;5.68;;
72856;SDS011;62742;52.136;4.500;2023-07-16T07:50:18;14.95;;;5.32;;
72856;SDS011;62742;52.136;4.500;2023-07-16T07:52:44;18.25;;;6.07;;
72856;SDS011;62742;52.136;4.500;2023-07-16T07:55:11;14.43;;;5.07;;
72856;SDS011;62742;52.136;4.500;2023-07-16T07:57:38;13.77;;;5.93;;
72856;SDS011;62742;52.136;4.500;2023-07-16T08:00:05;13.10;;;5.32;;
72856;SDS011;62742;52.136;4.500;2023-07-16T08:02:36;17.55;;;5.85;;
72856;SDS011;62742;52.136;4.500;2023-07-16T08:05:03;13.77;;;5.45;;
72856;SDS011;62742;52.136;4.500;2023-07-16T08:07:30;14.57;;;5.30;;
72856;SDS011;62742;52.136;4.500;2023-07-16T08:09:58;15.43;;;5.35;;
72856;SDS011;62742;52.136;4.500;2023-07-16T08:12:24;11.43;;;5.25;;
72856;SDS011;62742;52.136;4.500;2023-07-16T08:14:51;13.00;;;4.63;;
72856;SDS011;62742;52.136;4.500;2023-07-16T08:17:18;11.75;;;4.88;;
72856;SDS011;62742;52.136;4.500;2023-07-16T08:19:44;13.98;;;4.55;;
72856;SDS011;62742;52.136;4.500;2023-07-16T08:22:11;10.55;;;4.20;;
72856;SDS011;62742;52.136;4.500;2023-07-16T08:24:38;12.43;;;4.60;;
72856;SDS011;62742;52.136;4.500;2023-07-16T08:27:05;11.75;;;4.63;;
72856;SDS011;62742;52.136;4.500;2023-07-16T08:29:32;12.02;;;4.78;;
72856;SDS011;62742;52.136;4.500;2023-07-16T08:32:03;12.18;;;4.47;;
72856;SDS011;62742;52.136;4.500;2023-07-16T08:34:30;13.32;;;5.25;;
72856;SDS011;62742;52.136;4.500;2023-07-16T08:36:56;13.98;;;5.18;;
72856;SDS011;62742;52.136;4.500;2023-07-16T08:39:23;13.65;;;5.45;;
72856;SDS011;62742;52.136;4.500;2023-07-16T08:41:49;12.18;;;5.18;;
72856;SDS011;62742;52.136;4.500;2023-07-16T08:44:16;13.82;;;5.47;;
72856;SDS011;62742;52.136;4.500;2023-07-16T08:46:45;11.30;;;4.85;;
72856;SDS011;62742;52.136;4.500;2023-07-16T08:49:11;13.60;;;5.68;;
72856;SDS011;62742;52.136;4.500;2023-07-16T08:51:38;14.35;;;5.03;;
72856;SDS011;62742;52.136;4.500;2023-07-16T08:54:07;13.18;;;5.88;;
72856;SDS011;62742;52.136;4.500;2023-07-16T08:56:34;12.30;;;5.65;;
72856;SDS011;62742;52.136;4.500;2023-07-16T08:59:00;14.10;;;5.45;;
72856;SDS011;62742;52.136;4.500;2023-07-16T09:01:27;19.38;;;6.15;;
72856;SDS011;62742;52.136;4.500;2023-07-16T09:03:54;14.93;;;5.82;;
72856;SDS011;62742;52.136;4.500;2023-07-16T09:06:20;14.15;;;5.65;;
72856;SDS011;62742;52.136;4.500;2023-07-16T09:08:47;13.10;;;5.28;;
72856;SDS011;62742;52.136;4.500;2023-07-16T09:11:14;11.73;;;4.95;;
72856;SDS011;62742;52.136;4.500;2023-07-16T09:13:44;14.20;;;5.47;;
72856;SDS011;62742;52.136;4.500;2023-07-16T09:16:12;16.30;;;5.35;;
72856;SDS011;62742;52.136;4.500;2023-07-16T09:18:39;13.30;;;5.13;;
72856;SDS011;62742;52.136;4.500;2023-07-16T09:21:07;15.77;;;5.35;;
72856;SDS011;62742;52.136;4.500;2023-07-16T09:23:34;11.48;;;5.07;;
72856;SDS011;62742;52.136;4.500;2023-07-16T09:26:01;12.77;;;4.72;;
72856;SDS011;62742;52.136;4.500;2023-07-16T09:28:32;12.55;;;4.80;;
72856;SDS011;62742;52.136;4.500;2023-07-16T09:31:05;16.52;;;4.93;;
72856;SDS011;62742;52.136;4.500;2023-07-16T09:33:33;14.35;;;4.35;;
72856;SDS011;62742;52.136;4.500;2023-07-16T09:36:00;15.90;;;4.93;;
72856;SDS011;62742;52.136;4.500;2023-07-16T09:38:28;17.00;;;5.13;;
72856;SDS011;62742;52.136;4.500;2023-07-16T09:40:56;14.30;;;4.90;;
72856;SDS011;62742;52.136;4.500;2023-07-16T09:43:23;9.77;;;4.40;;
72856;SDS011;62742;52.136;4.500;2023-07-16T09:45:49;10.80;;;4.40;;
72856;SDS011;62742;52.136;4.500;2023-07-16T09:48:16;13.68;;;4.70;;
72856;SDS011;62742;52.136;4.500;2023-07-16T09:50:45;10.90;;;4.15;;
72856;SDS011;62742;52.136;4.500;2023-07-16T09:53:19;18.65;;;5.20;;
72856;SDS011;62742;52.136;4.500;2023-07-16T09:55:47;16.50;;;4.97;;
72856;SDS011;62742;52.136;4.500;2023-07-16T09:58:20;15.63;;;4.72;;
72856;SDS011;62742;52.136;4.500;2023-07-16T10:00:59;11.45;;;4.10;;
72856;SDS011;62742;52.136;4.500;2023-07-16T10:03:28;15.32;;;5.05;;
72856;SDS011;62742;52.136;4.500;2023-07-16T10:06:08;15.93;;;4.88;;
72856;SDS011;62742;52.136;4.500;2023-07-16T10:08:40;14.85;;;4.80;;
72856;SDS011;62742;52.136;4.500;2023-07-16T10:11:17;13.32;;;4.40;;
72856;SDS011;62742;52.136;4.500;2023-07-16T10:13:50;13.60;;;4.15;;
72856;SDS011;62742;52.136;4.500;2023-07-16T10:16:21;13.20;;;4.10;;
72856;SDS011;62742;52.136;4.500;2023-07-16T10:18:50;14.32;;;4.22;;
72856;SDS011;62742;52.136;4.500;2023-07-16T10:21:24;11.77;;;3.75;;
72856;SDS011;62742;52.136;4.500;2023-07-16T10:23:58;11.30;;;2.75;;
72856;SDS011;62742;52.136;4.500;2023-07-16T10:26:29;13.40;;;2.97;;
72856;SDS011;62742;52.136;4.500;2023-07-16T10:28:55;8.57;;;2.72;;
72856;SDS011;62742;52.136;4.500;2023-07-16T10:31:22;9.00;;;2.60;;
72856;SDS011;62742;52.136;4.500;2023-07-16T10:34:03;11.75;;;3.22;;
72856;SDS011;62742;52.136;4.500;2023-07-16T10:36:39;9.30;;;2.35;;
72856;SDS011;62742;52.136;4.500;2023-07-16T10:39:06;8.83;;;2.60;;
72856;SDS011;62742;52.136;4.500;2023-07-16T10:41:33;12.07;;;3.60;;
72856;SDS011;62742;52.136;4.500;2023-07-16T10:44:01;12.35;;;3.35;;
72856;SDS011;62742;52.136;4.500;2023-07-16T10:46:28;13.68;;;2.83;;
72856;SDS011;62742;52.136;4.500;2023-07-16T10:48:58;12.82;;;2.50;;
72856;SDS011;62742;52.136;4.500;2023-07-16T10:51:26;9.07;;;2.25;;
72856;SDS011;62742;52.136;4.500;2023-07-16T10:53:55;14.90;;;2.38;;
72856;SDS011;62742;52.136;4.500;2023-07-16T10:56:22;10.48;;;2.33;;
72856;SDS011;62742;52.136;4.500;2023-07-16T10:58:49;9.43;;;2.40;;
72856;SDS011;62742;52.136;4.500;2023-07-16T11:01:28;9.82;;;2.10;;
72856;SDS011;62742;52.136;4.500;2023-07-16T11:04:02;9.07;;;2.35;;
72856;SDS011;62742;52.136;4.500;2023-07-16T11:06:34;10.70;;;2.83;;
72856;SDS011;62742;52.136;4.500;2023-07-16T11:09:08;10.50;;;2.65;;
72856;SDS011;62742;52.136;4.500;2023-07-16T11:15:03;11.15;;;2.33;;
72856;SDS011;62742;52.136;4.500;2023-07-16T11:17:30;10.13;;;2.47;;
72856;SDS011;62742;52.136;4.500;2023-07-16T11:20:12;11.38;;;2.75;;
72856;SDS011;62742;52.136;4.500;2023-07-16T11:22:39;17.77;;;3.13;;
72856;SDS011;62742;52.136;4.500;2023-07-16T11:25:10;10.15;;;2.42;;
72856;SDS011;62742;52.136;4.500;2023-07-16T11:27:40;8.40;;;2.15;;
72856;SDS011;62742;52.136;4.500;2023-07-16T11:30:08;6.78;;;1.45;;
72856;SDS011;62742;52.136;4.500;2023-07-16T11:32:42;9.18;;;1.65;;
72856;SDS011;62742;52.136;4.500;2023-07-16T11:35:18;10.13;;;1.58;;
72856;SDS011;62742;52.136;4.500;2023-07-16T11:37:47;10.27;;;1.58;;
72856;SDS011;62742;52.136;4.500;2023-07-16T11:40:15;7.68;;;1.60;;
72856;SDS011;62742;52.136;4.500;2023-07-16T11:42:46;7.07;;;1.35;;
72856;SDS011;62742;52.136;4.500;2023-07-16T11:45:32;7.88;;;1.98;;
72856;SDS011;62742;52.136;4.500;2023-07-16T11:48:00;7.43;;;1.98;;
72856;SDS011;62742;52.136;4.500;2023-07-16T11:50:26;7.50;;;1.33;;
72856;SDS011;62742;52.136;4.500;2023-07-16T11:53:01;9.00;;;1.88;;
72856;SDS011;62742;52.136;4.500;2023-07-16T11:55:52;7.90;;;1.65;;
72856;SDS011;62742;52.136;4.500;2023-07-16T11:58:21;6.13;;;1.73;;
72856;SDS011;62742;52.136;4.500;2023-07-16T12:00:50;7.82;;;1.60;;
72856;SDS011;62742;52.136;4.500;2023-07-16T12:03:28;7.35;;;1.75;;
72856;SDS011;62742;52.136;4.500;2023-07-16T12:06:14;8.25;;;1.70;;
72856;SDS011;62742;52.136;4.500;2023-07-16T12:08:41;7.47;;;1.73;;
72856;SDS011;62742;52.136;4.500;2023-07-16T12:11:07;8.60;;;1.73;;
72856;SDS011;62742;52.136;4.500;2023-07-16T12:13:34;12.05;;;2.40;;
72856;SDS011;62742;52.136;4.500;2023-07-16T12:16:00;10.52;;;2.35;;
72856;SDS011;62742;52.136;4.500;2023-07-16T12:18:28;9.13;;;2.15;;
72856;SDS011;62742;52.136;4.500;2023-07-16T12:20:56;6.18;;;2.08;;
72856;SDS011;62742;52.136;4.500;2023-07-16T12:23:23;8.45;;;2.00;;
72856;SDS011;62742;52.136;4.500;2023-07-16T12:25:50;8.98;;;2.10;;
72856;SDS011;62742;52.136;4.500;2023-07-16T12:28:16;11.88;;;2.88;;
72856;SDS011;62742;52.136;4.500;2023-07-16T12:30:43;11.48;;;2.15;;
72856;SDS011;62742;52.136;4.500;2023-07-16T12:33:09;10.07;;;2.00;;
72856;SDS011;62742;52.136;4.500;2023-07-16T12:35:36;18.42;;;2.55;;
72856;SDS011;62742;52.136;4.500;2023-07-16T12:38:02;11.23;;;2.22;;
72856;SDS011;62742;52.136;4.500;2023-07-16T12:40:29;9.00;;;2.00;;
72856;SDS011;62742;52.136;4.500;2023-07-16T12:42:57;10.82;;;2.40;;
72856;SDS011;62742;52.136;4.500;2023-07-16T12:45:24;8.82;;;1.90;;
72856;SDS011;62742;52.136;4.500;2023-07-16T12:47:50;13.15;;;2.45;;
72856;SDS011;62742;52.136;4.500;2023-07-16T12:50:17;9.30;;;2.20;;
72856;SDS011;62742;52.136;4.500;2023-07-16T12:52:43;9.68;;;2.20;;
72856;SDS011;62742;52.136;4.500;2023-07-16T12:55:09;9.05;;;1.73;;
72856;SDS011;62742;52.136;4.500;2023-07-16T12:57:36;9.63;;;1.70;;
72856;SDS011;62742;52.136;4.500;2023-07-16T13:00:02;7.03;;;1.40;;
72856;SDS011;62742;52.136;4.500;2023-07-16T13:02:31;10.40;;;1.77;;
72856;SDS011;62742;52.136;4.500;2023-07-16T13:04:57;5.32;;;1.40;;
72856;SDS011;62742;52.136;4.500;2023-07-16T13:07:24;13.57;;;2.45;;
72856;SDS011;62742;52.136;4.500;2023-07-16T13:09:50;9.40;;;2.03;;
72856;SDS011;62742;52.136;4.500;2023-07-16T13:12:17;9.88;;;2.38;;
72856;SDS011;62742;52.136;4.500;2023-07-16T13:14:44;13.95;;;2.53;;
72856;SDS011;62742;52.136;4.500;2023-07-16T13:17:10;8.82;;;1.60;;
72856;SDS011;62742;52.136;4.500;2023-07-16T13:19:37;8.85;;;2.08;;
72856;SDS011;62742;52.136;4.500;2023-07-16T13:22:04;8.10;;;2.35;;
72856;SDS011;62742;52.136;4.500;2023-07-16T13:24:30;9.50;;;2.47;;
72856;SDS011;62742;52.136;4.500;2023-07-16T13:26:57;11.63;;;2.47;;
72856;SDS011;62742;52.136;4.500;2023-07-16T13:29:23;12.60;;;2.50;;
72856;SDS011;62742;52.136;4.500;2023-07-16T13:31:49;12.73;;;2.55;;
72856;SDS011;62742;52.136;4.500;2023-07-16T13:34:16;12.70;;;2.28;;
72856;SDS011;62742;52.136;4.500;2023-07-16T13:36:43;10.45;;;2.08;;
72856;SDS011;62742;52.136;4.500;2023-07-16T13:39:09;9.07;;;2.05;;
72856;SDS011;62742;52.136;4.500;2023-07-16T13:41:39;12.88;;;2.38;;
72856;SDS011;62742;52.136;4.500;2023-07-16T13:44:05;13.45;;;2.80;;
72856;SDS011;62742;52.136;4.500;2023-07-16T13:46:32;10.45;;;2.40;;
72856;SDS011;62742;52.136;4.500;2023-07-16T13:48:58;10.90;;;2.45;;
72856;SDS011;62742;52.136;4.500;2023-07-16T13:51:26;11.73;;;2.38;;
72856;SDS011;62742;52.136;4.500;2023-07-16T13:53:52;11.68;;;2.30;;
72856;SDS011;62742;52.136;4.500;2023-07-16T13:56:19;14.30;;;2.78;;
72856;SDS011;62742;52.136;4.500;2023-07-16T13:58:45;10.27;;;2.30;;
72856;SDS011;62742;52.136;4.500;2023-07-16T14:01:12;7.55;;;2.00;;
72856;SDS011;62742;52.136;4.500;2023-07-16T14:03:39;8.40;;;2.25;;
72856;SDS011;62742;52.136;4.500;2023-07-16T14:06:05;13.27;;;2.40;;
72856;SDS011;62742;52.136;4.500;2023-07-16T14:08:32;9.10;;;1.73;;
72856;SDS011;62742;52.136;4.500;2023-07-16T14:10:59;9.02;;;1.88;;
72856;SDS011;62742;52.136;4.500;2023-07-16T14:13:26;9.68;;;2.10;;
72856;SDS011;62742;52.136;4.500;2023-07-16T14:15:52;10.32;;;2.33;;
72856;SDS011;62742;52.136;4.500;2023-07-16T14:18:19;15.23;;;2.67;;
72856;SDS011;62742;52.136;4.500;2023-07-16T14:20:45;11.70;;;2.78;;
72856;SDS011;62742;52.136;4.500;2023-07-16T14:23:12;12.55;;;2.88;;
72856;SDS011;62742;52.136;4.500;2023-07-16T14:25:38;14.10;;;2.70;;
72856;SDS011;62742;52.136;4.500;2023-07-16T14:28:05;12.57;;;2.50;;
72856;SDS011;62742;52.136;4.500;2023-07-16T14:30:31;18.10;;;2.80;;
72856;SDS011;62742;52.136;4.500;2023-07-16T14:32:58;12.45;;;3.03;;
72856;SDS011;62742;52.136;4.500;2023-07-16T14:35:25;16.20;;;3.05;;
72856;SDS011;62742;52.136;4.500;2023-07-16T14:37:51;14.38;;;2.88;;
72856;SDS011;62742;52.136;4.500;2023-07-16T14:40:18;10.68;;;2.75;;
72856;SDS011;62742;52.136;4.500;2023-07-16T14:42:45;13.88;;;2.80;;
72856;SDS011;62742;52.136;4.500;2023-07-16T14:45:12;15.07;;;3.47;;
72856;SDS011;62742;52.136;4.500;2023-07-16T14:47:40;12.30;;;2.58;;
72856;SDS011;62742;52.136;4.500;2023-07-16T14:50:07;12.18;;;2.50;;